KGCN/GCN METAR and TAF weather

Enter ICAO airport designator
Station Type Date Time Source
KGCN METAR 2020/01/28 11:54 UTC NOAA

KGCN 281154Z AUTO 00000KT 10SM CLR M07/M09 A3025 RMK AO2 SLP245 T10671089 11039 21078 58003


Station Type Date Time Source
KGCN Decoded METAR 2020/01/28 11:54 UTC NOAA

GRAND CANYON NATL PARK AIRPORT , AZ, United States (KGCN) 35-57N 112-09W 2016M
Jan 28, 2020 - 06:54 AM EST / 2020.01.28 1154 UTC
Wind: Calm:0
Visibility: 10 mile(s):0
Sky conditions: clear
Temperature: 19.9 F (-6.7 C)
Dew Point: 16.0 F (-8.9 C)
Relative Humidity: 84%
Pressure (altimeter): 30.25 in. Hg (1024 hPa)
Pressure tendency: 0.01 inches (0.3 hPa) lower than three hours ago
ob: KGCN 281154Z AUTO 00000KT 10SM CLR M07/M09 A3025 RMK AO2 SLP245 T10671089 11039 21078 58003
cycle: 12

Station Type Date Time Source
KGCN TAF 2020/01/28 12:36 UTC NOAA

TAF KGCN 281134Z 2812/2912 VRB06KT P6SM SCT250

Example: see airport list